sensor_id;sensor_type;location;lat;lon;timestamp;pressure;altitude;pressure_sealevel;temperature;humidity
10464;BME280;5279;42.048;24.638;2023-07-28T00:02:06;97462.06;;;17.83;61.03
10464;BME280;5279;42.048;24.638;2023-07-28T00:04:34;97467.81;;;17.80;61.08
10464;BME280;5279;42.048;24.638;2023-07-28T00:07:01;97463.47;;;17.79;61.71
10464;BME280;5279;42.048;24.638;2023-07-28T00:09:28;97457.25;;;17.72;61.42
10464;BME280;5279;42.048;24.638;2023-07-28T00:11:56;97471.66;;;17.71;60.74
10464;BME280;5279;42.048;24.638;2023-07-28T00:14:24;97467.97;;;17.72;63.54
10464;BME280;5279;42.048;24.638;2023-07-28T00:16:52;97459.97;;;17.57;63.57
10464;BME280;5279;42.048;24.638;2023-07-28T00:19:20;97472.25;;;17.52;66.07
10464;BME280;5279;42.048;24.638;2023-07-28T00:21:47;97473.00;;;17.45;64.43
10464;BME280;5279;42.048;24.638;2023-07-28T00:24:14;97460.50;;;17.31;67.68
10464;BME280;5279;42.048;24.638;2023-07-28T00:26:41;97454.19;;;17.18;68.84
10464;BME280;5279;42.048;24.638;2023-07-28T00:29:08;97470.56;;;17.08;70.48
10464;BME280;5279;42.048;24.638;2023-07-28T00:31:36;97460.66;;;17.09;71.25
10464;BME280;5279;42.048;24.638;2023-07-28T00:34:04;97461.94;;;16.77;74.16
10464;BME280;5279;42.048;24.638;2023-07-28T00:36:32;97463.94;;;16.75;72.75
10464;BME280;5279;42.048;24.638;2023-07-28T00:39:00;97460.47;;;16.60;76.88
10464;BME280;5279;42.048;24.638;2023-07-28T00:41:27;97477.16;;;16.47;71.74
10464;BME280;5279;42.048;24.638;2023-07-28T00:43:54;97463.94;;;16.46;74.38
10464;BME280;5279;42.048;24.638;2023-07-28T00:46:22;97468.28;;;16.47;74.30
10464;BME280;5279;42.048;24.638;2023-07-28T00:48:49;97461.91;;;16.48;73.00
10464;BME280;5279;42.048;24.638;2023-07-28T00:51:18;97464.31;;;16.42;76.65
10464;BME280;5279;42.048;24.638;2023-07-28T00:53:45;97462.13;;;16.31;78.91
10464;BME280;5279;42.048;24.638;2023-07-28T00:56:12;97461.81;;;16.26;77.29
10464;BME280;5279;42.048;24.638;2023-07-28T00:58:39;97466.16;;;16.27;76.43
10464;BME280;5279;42.048;24.638;2023-07-28T01:01:06;97462.13;;;16.31;75.38
10464;BME280;5279;42.048;24.638;2023-07-28T01:03:33;97465.44;;;16.33;74.53
10464;BME280;5279;42.048;24.638;2023-07-28T01:06:10;97463.59;;;16.19;77.88
10464;BME280;5279;42.048;24.638;2023-07-28T01:08:48;97459.50;;;16.23;77.13
10464;BME280;5279;42.048;24.638;2023-07-28T01:11:16;97457.88;;;16.22;77.19
10464;BME280;5279;42.048;24.638;2023-07-28T01:13:43;97452.69;;;16.06;78.08
10464;BME280;5279;42.048;24.638;2023-07-28T01:16:10;97450.66;;;16.08;75.25
10464;BME280;5279;42.048;24.638;2023-07-28T01:18:38;97449.09;;;16.14;78.85
10464;BME280;5279;42.048;24.638;2023-07-28T01:21:08;97453.88;;;16.04;77.54
10464;BME280;5279;42.048;24.638;2023-07-28T01:23:44;97448.06;;;16.00;78.89
10464;BME280;5279;42.048;24.638;2023-07-28T01:26:16;97454.25;;;16.01;77.73
10464;BME280;5279;42.048;24.638;2023-07-28T01:28:46;97449.25;;;15.98;80.41
10464;BME280;5279;42.048;24.638;2023-07-28T01:31:14;97457.00;;;15.93;78.34
10464;BME280;5279;42.048;24.638;2023-07-28T01:33:41;97460.78;;;15.98;76.17
10464;BME280;5279;42.048;24.638;2023-07-28T01:36:08;97448.06;;;16.00;77.73
10464;BME280;5279;42.048;24.638;2023-07-28T01:38:36;97454.72;;;16.04;73.79
10464;BME280;5279;42.048;24.638;2023-07-28T01:41:03;97450.00;;;16.06;76.95
10464;BME280;5279;42.048;24.638;2023-07-28T01:43:30;97457.19;;;16.06;76.32
10464;BME280;5279;42.048;24.638;2023-07-28T01:45:58;97463.94;;;16.16;79.09
10464;BME280;5279;42.048;24.638;2023-07-28T01:48:26;97456.81;;;16.09;79.07
10464;BME280;5279;42.048;24.638;2023-07-28T01:50:53;97451.00;;;16.05;77.49
10464;BME280;5279;42.048;24.638;2023-07-28T01:53:20;97451.66;;;15.93;76.74
10464;BME280;5279;42.048;24.638;2023-07-28T01:55:47;97471.84;;;15.95;77.00
10464;BME280;5279;42.048;24.638;2023-07-28T01:58:14;97459.47;;;15.94;75.48
10464;BME280;5279;42.048;24.638;2023-07-28T02:00:41;97445.47;;;15.92;73.37
10464;BME280;5279;42.048;24.638;2023-07-28T02:03:09;97465.59;;;16.17;73.32
10464;BME280;5279;42.048;24.638;2023-07-28T02:05:36;97471.31;;;16.14;73.94
10464;BME280;5279;42.048;24.638;2023-07-28T02:08:06;97460.53;;;16.08;74.27
10464;BME280;5279;42.048;24.638;2023-07-28T02:10:33;97461.91;;;16.18;72.82
10464;BME280;5279;42.048;24.638;2023-07-28T02:13:00;97460.53;;;16.08;76.39
10464;BME280;5279;42.048;24.638;2023-07-28T02:15:27;97466.31;;;16.11;73.81
10464;BME280;5279;42.048;24.638;2023-07-28T02:17:54;97462.75;;;16.04;73.79
10464;BME280;5279;42.048;24.638;2023-07-28T02:20:23;97453.03;;;16.03;71.79
10464;BME280;5279;42.048;24.638;2023-07-28T02:22:49;97463.63;;;15.97;77.11
10464;BME280;5279;42.048;24.638;2023-07-28T02:25:17;97462.50;;;15.76;79.12
10464;BME280;5279;42.048;24.638;2023-07-28T02:27:44;97460.13;;;15.59;78.64
10464;BME280;5279;42.048;24.638;2023-07-28T02:30:11;97460.13;;;15.59;81.17
10464;BME280;5279;42.048;24.638;2023-07-28T02:32:39;97450.66;;;15.56;79.32
10464;BME280;5279;42.048;24.638;2023-07-28T02:35:07;97458.53;;;15.50;80.99
10464;BME280;5279;42.048;24.638;2023-07-28T02:37:37;97455.50;;;15.53;76.34
10464;BME280;5279;42.048;24.638;2023-07-28T02:40:05;97459.38;;;15.42;80.77
10464;BME280;5279;42.048;24.638;2023-07-28T02:42:32;97458.34;;;15.28;80.88
10464;BME280;5279;42.048;24.638;2023-07-28T02:45:01;97451.97;;;15.29;78.49
10464;BME280;5279;42.048;24.638;2023-07-28T02:47:28;97461.91;;;15.44;74.65
10464;BME280;5279;42.048;24.638;2023-07-28T02:49:55;97459.22;;;15.44;74.87
10464;BME280;5279;42.048;24.638;2023-07-28T02:52:22;97454.53;;;15.46;72.87
10464;BME280;5279;42.048;24.638;2023-07-28T02:54:51;97460.50;;;15.56;74.80
10464;BME280;5279;42.048;24.638;2023-07-28T02:57:18;97466.75;;;15.63;72.33
10464;BME280;5279;42.048;24.638;2023-07-28T02:59:46;97459.53;;;15.49;75.61
10464;BME280;5279;42.048;24.638;2023-07-28T03:02:13;97462.69;;;15.44;77.04
10464;BME280;5279;42.048;24.638;2023-07-28T03:04:40;97469.94;;;15.36;75.14
10464;BME280;5279;42.048;24.638;2023-07-28T03:07:07;97464.59;;;15.36;79.39
10464;BME280;5279;42.048;24.638;2023-07-28T03:09:35;97464.25;;;15.39;79.53
10464;BME280;5279;42.048;24.638;2023-07-28T03:12:04;97466.19;;;15.53;75.55
10464;BME280;5279;42.048;24.638;2023-07-28T03:14:32;97471.81;;;15.58;71.76
10464;BME280;5279;42.048;24.638;2023-07-28T03:16:59;97471.50;;;15.75;69.27
10464;BME280;5279;42.048;24.638;2023-07-28T03:19:26;97483.63;;;15.86;74.62
10464;BME280;5279;42.048;24.638;2023-07-28T03:21:53;97479.00;;;15.80;73.78
10464;BME280;5279;42.048;24.638;2023-07-28T03:24:20;97478.63;;;15.83;73.86
10464;BME280;5279;42.048;24.638;2023-07-28T03:26:47;97471.75;;;15.66;79.66
10464;BME280;5279;42.048;24.638;2023-07-28T03:29:16;97469.16;;;15.58;77.68
10464;BME280;5279;42.048;24.638;2023-07-28T03:31:43;97480.19;;;15.55;70.75
10464;BME280;5279;42.048;24.638;2023-07-28T03:34:10;97483.03;;;15.76;64.78
10464;BME280;5279;42.048;24.638;2023-07-28T03:36:38;97489.88;;;15.93;63.81
10464;BME280;5279;42.048;24.638;2023-07-28T03:39:05;97486.78;;;16.04;61.88
10464;BME280;5279;42.048;24.638;2023-07-28T03:41:32;97491.97;;;16.20;62.17
10464;BME280;5279;42.048;24.638;2023-07-28T03:43:59;97490.84;;;16.29;61.46
10464;BME280;5279;42.048;24.638;2023-07-28T03:46:27;97488.13;;;16.37;61.04
10464;BME280;5279;42.048;24.638;2023-07-28T03:48:54;97489.63;;;16.55;59.14
10464;BME280;5279;42.048;24.638;2023-07-28T03:51:23;97507.63;;;16.61;59.21
10464;BME280;5279;42.048;24.638;2023-07-28T03:53:50;97504.03;;;16.68;58.60
10464;BME280;5279;42.048;24.638;2023-07-28T03:56:18;97506.06;;;16.81;58.37
10464;BME280;5279;42.048;24.638;2023-07-28T03:58:45;97507.78;;;16.88;59.60
10464;BME280;5279;42.048;24.638;2023-07-28T04:01:12;97500.84;;;16.94;61.08
10464;BME280;5279;42.048;24.638;2023-07-28T04:03:40;97507.50;;;16.98;61.29
10464;BME280;5279;42.048;24.638;2023-07-28T04:06:10;97510.34;;;16.97;59.95
10464;BME280;5279;42.048;24.638;2023-07-28T04:08:37;97509.53;;;16.96;59.27
10464;BME280;5279;42.048;24.638;2023-07-28T04:11:04;97514.41;;;17.07;59.19
10464;BME280;5279;42.048;24.638;2023-07-28T04:13:32;97510.81;;;17.00;57.62
10464;BME280;5279;42.048;24.638;2023-07-28T04:15:59;97516.72;;;17.10;56.78
10464;BME280;5279;42.048;24.638;2023-07-28T04:18:26;97510.22;;;17.19;55.86
10464;BME280;5279;42.048;24.638;2023-07-28T04:20:55;97508.72;;;17.31;57.63
10464;BME280;5279;42.048;24.638;2023-07-28T04:23:22;97507.59;;;17.40;59.61
10464;BME280;5279;42.048;24.638;2023-07-28T04:25:49;97518.84;;;17.51;56.12
10464;BME280;5279;42.048;24.638;2023-07-28T04:28:16;97507.47;;;17.48;53.86
10464;BME280;5279;42.048;24.638;2023-07-28T04:30:43;97517.97;;;17.65;52.09
10464;BME280;5279;42.048;24.638;2023-07-28T04:33:10;97518.75;;;17.80;53.41
10464;BME280;5279;42.048;24.638;2023-07-28T04:35:36;97517.44;;;17.97;52.66
10464;BME280;5279;42.048;24.638;2023-07-28T04:38:05;97520.88;;;18.12;50.60
10464;BME280;5279;42.048;24.638;2023-07-28T04:40:32;97511.28;;;18.24;51.17
10464;BME280;5279;42.048;24.638;2023-07-28T04:42:59;97515.69;;;18.32;49.81
10464;BME280;5279;42.048;24.638;2023-07-28T04:45:25;97517.63;;;18.44;49.54
10464;BME280;5279;42.048;24.638;2023-07-28T04:47:52;97522.69;;;18.54;49.46
10464;BME280;5279;42.048;24.638;2023-07-28T04:50:19;97523.16;;;18.64;48.19
10464;BME280;5279;42.048;24.638;2023-07-28T04:52:46;97523.34;;;18.63;46.16
10464;BME280;5279;42.048;24.638;2023-07-28T04:55:15;97521.91;;;18.60;47.83
10464;BME280;5279;42.048;24.638;2023-07-28T04:57:42;97519.84;;;18.62;47.56
10464;BME280;5279;42.048;24.638;2023-07-28T05:00:10;97519.09;;;18.75;46.77
10464;BME280;5279;42.048;24.638;2023-07-28T05:02:37;97519.16;;;18.88;45.54
10464;BME280;5279;42.048;24.638;2023-07-28T05:05:04;97523.75;;;19.00;45.84
10464;BME280;5279;42.048;24.638;2023-07-28T05:07:31;97519.28;;;19.14;44.69
10464;BME280;5279;42.048;24.638;2023-07-28T05:09:57;97514.59;;;19.29;45.00
10464;BME280;5279;42.048;24.638;2023-07-28T05:12:25;97525.84;;;19.39;43.94
10464;BME280;5279;42.048;24.638;2023-07-28T05:14:53;97522.72;;;19.49;44.08
10464;BME280;5279;42.048;24.638;2023-07-28T05:17:20;97511.84;;;19.63;44.18
10464;BME280;5279;42.048;24.638;2023-07-28T05:19:47;97522.19;;;19.80;43.20
10464;BME280;5279;42.048;24.638;2023-07-28T05:22:14;97522.81;;;19.95;43.43
10464;BME280;5279;42.048;24.638;2023-07-28T05:24:41;97529.25;;;20.07;42.89
10464;BME280;5279;42.048;24.638;2023-07-28T05:27:09;97539.22;;;20.26;43.35
10464;BME280;5279;42.048;24.638;2023-07-28T05:29:38;97526.16;;;20.49;43.95
10464;BME280;5279;42.048;24.638;2023-07-28T05:32:06;97533.16;;;20.77;45.76
10464;BME280;5279;42.048;24.638;2023-07-28T05:34:36;97523.22;;;20.90;51.97
10464;BME280;5279;42.048;24.638;2023-07-28T05:37:05;97528.16;;;21.00;52.75
10464;BME280;5279;42.048;24.638;2023-07-28T05:39:31;97523.97;;;21.17;50.95
10464;BME280;5279;42.048;24.638;2023-07-28T05:41:58;97527.84;;;21.34;51.26
10464;BME280;5279;42.048;24.638;2023-07-28T05:44:25;97526.38;;;21.38;50.93
10464;BME280;5279;42.048;24.638;2023-07-28T05:46:53;97532.13;;;21.48;51.13
10464;BME280;5279;42.048;24.638;2023-07-28T05:49:20;97524.78;;;21.62;51.43
10464;BME280;5279;42.048;24.638;2023-07-28T05:51:47;97530.53;;;21.78;50.89
10464;BME280;5279;42.048;24.638;2023-07-28T05:54:14;97528.22;;;21.82;51.80
10464;BME280;5279;42.048;24.638;2023-07-28T05:56:41;97528.19;;;21.89;50.63
10464;BME280;5279;42.048;24.638;2023-07-28T05:59:08;97538.91;;;22.02;49.74
10464;BME280;5279;42.048;24.638;2023-07-28T06:01:35;97533.94;;;21.99;49.66
10464;BME280;5279;42.048;24.638;2023-07-28T06:04:04;97531.00;;;22.07;49.80
10464;BME280;5279;42.048;24.638;2023-07-28T06:06:31;97526.34;;;22.14;50.02
10464;BME280;5279;42.048;24.638;2023-07-28T06:08:58;97530.44;;;22.23;49.59
10464;BME280;5279;42.048;24.638;2023-07-28T06:11:24;97535.72;;;22.36;49.21
10464;BME280;5279;42.048;24.638;2023-07-28T06:13:52;97532.31;;;22.47;48.41
10464;BME280;5279;42.048;24.638;2023-07-28T06:16:18;97540.28;;;22.60;48.56
10464;BME280;5279;42.048;24.638;2023-07-28T06:18:45;97539.16;;;22.74;47.57
10464;BME280;5279;42.048;24.638;2023-07-28T06:21:14;97546.97;;;22.82;48.34
10464;BME280;5279;42.048;24.638;2023-07-28T06:23:40;97542.25;;;22.96;47.13
10464;BME280;5279;42.048;24.638;2023-07-28T06:26:07;97537.53;;;23.10;48.21
10464;BME280;5279;42.048;24.638;2023-07-28T06:28:34;97544.88;;;23.21;47.08
10464;BME280;5279;42.048;24.638;2023-07-28T06:31:02;97534.38;;;23.31;47.29
10464;BME280;5279;42.048;24.638;2023-07-28T06:33:29;97530.16;;;23.53;46.49
10464;BME280;5279;42.048;24.638;2023-07-28T06:35:56;97528.06;;;23.55;44.87
10464;BME280;5279;42.048;24.638;2023-07-28T06:38:25;97532.22;;;23.69;45.03
10464;BME280;5279;42.048;24.638;2023-07-28T06:40:52;97516.66;;;23.83;45.68
10464;BME280;5279;42.048;24.638;2023-07-28T06:43:19;97510.66;;;23.92;44.85
10464;BME280;5279;42.048;24.638;2023-07-28T06:45:46;97515.09;;;24.17;43.95
10464;BME280;5279;42.048;24.638;2023-07-28T06:48:13;97516.78;;;24.29;43.92
10464;BME280;5279;42.048;24.638;2023-07-28T06:50:40;97510.19;;;24.37;42.77
10464;BME280;5279;42.048;24.638;2023-07-28T06:53:07;97503.13;;;24.47;42.13
10464;BME280;5279;42.048;24.638;2023-07-28T06:55:35;97522.44;;;24.51;41.92
10464;BME280;5279;42.048;24.638;2023-07-28T06:58:04;97506.44;;;24.61;41.91
10464;BME280;5279;42.048;24.638;2023-07-28T07:00:31;97518.09;;;24.73;40.46
10464;BME280;5279;42.048;24.638;2023-07-28T07:02:59;97513.16;;;24.70;41.11
10464;BME280;5279;42.048;24.638;2023-07-28T07:05:26;97509.16;;;24.84;40.83
10464;BME280;5279;42.048;24.638;2023-07-28T07:07:52;97510.09;;;24.90;40.04
10464;BME280;5279;42.048;24.638;2023-07-28T07:10:19;97506.59;;;24.89;39.80
10464;BME280;5279;42.048;24.638;2023-07-28T07:12:48;97508.19;;;25.14;40.81
10464;BME280;5279;42.048;24.638;2023-07-28T07:15:15;97515.94;;;25.22;39.41
10464;BME280;5279;42.048;24.638;2023-07-28T07:17:42;97506.59;;;25.29;39.67
10464;BME280;5279;42.048;24.638;2023-07-28T07:20:09;97501.88;;;25.36;38.82
10464;BME280;5279;42.048;24.638;2023-07-28T07:22:37;97508.19;;;25.53;38.74
10464;BME280;5279;42.048;24.638;2023-07-28T07:25:04;97511.03;;;25.59;38.78
10464;BME280;5279;42.048;24.638;2023-07-28T07:27:32;97508.34;;;25.75;38.57
10464;BME280;5279;42.048;24.638;2023-07-28T07:30:00;97512.09;;;25.86;39.32
10464;BME280;5279;42.048;24.638;2023-07-28T07:32:28;97506.03;;;25.95;36.74
10464;BME280;5279;42.048;24.638;2023-07-28T07:34:55;97510.63;;;26.12;37.71
10464;BME280;5279;42.048;24.638;2023-07-28T07:37:22;97507.56;;;26.20;37.48
10464;BME280;5279;42.048;24.638;2023-07-28T07:39:49;97513.00;;;26.20;36.78
10464;BME280;5279;42.048;24.638;2023-07-28T07:42:15;97511.69;;;26.22;35.62
10464;BME280;5279;42.048;24.638;2023-07-28T07:44:42;97507.31;;;26.38;36.81
10464;BME280;5279;42.048;24.638;2023-07-28T07:47:14;97510.84;;;26.55;36.13
10464;BME280;5279;42.048;24.638;2023-07-28T07:49:41;97504.47;;;26.66;36.28
10464;BME280;5279;42.048;24.638;2023-07-28T07:52:09;97513.63;;;26.60;34.95
10464;BME280;5279;42.048;24.638;2023-07-28T07:54:36;97505.47;;;26.60;34.81
10464;BME280;5279;42.048;24.638;2023-07-28T07:57:03;97505.09;;;26.68;34.34
10464;BME280;5279;42.048;24.638;2023-07-28T07:59:30;97503.69;;;26.82;34.57
10464;BME280;5279;42.048;24.638;2023-07-28T08:01:59;97512.66;;;26.83;33.86
10464;BME280;5279;42.048;24.638;2023-07-28T08:04:29;97516.09;;;26.95;33.39
10464;BME280;5279;42.048;24.638;2023-07-28T08:06:56;97515.31;;;27.16;33.65
10464;BME280;5279;42.048;24.638;2023-07-28T08:09:23;97505.44;;;27.32;33.92
10464;BME280;5279;42.048;24.638;2023-07-28T08:11:50;97507.38;;;27.36;33.42
10464;BME280;5279;42.048;24.638;2023-07-28T08:14:18;97498.00;;;27.44;33.74
10464;BME280;5279;42.048;24.638;2023-07-28T08:16:45;97490.63;;;27.66;33.38
10464;BME280;5279;42.048;24.638;2023-07-28T08:19:12;97492.69;;;27.81;32.45
10464;BME280;5279;42.048;24.638;2023-07-28T08:21:40;97486.53;;;27.90;31.58
10464;BME280;5279;42.048;24.638;2023-07-28T08:24:07;97483.84;;;27.95;31.94
10464;BME280;5279;42.048;24.638;2023-07-28T08:26:34;97485.59;;;28.06;31.39
10464;BME280;5279;42.048;24.638;2023-07-28T08:29:01;97472.75;;;28.02;30.15
10464;BME280;5279;42.048;24.638;2023-07-28T08:31:28;97459.28;;;27.90;31.09
10464;BME280;5279;42.048;24.638;2023-07-28T08:33:55;97480.78;;;28.13;31.39
10464;BME280;5279;42.048;24.638;2023-07-28T08:36:22;97477.78;;;28.15;30.97
10464;BME280;5279;42.048;24.638;2023-07-28T08:38:51;97473.13;;;28.10;30.97
10464;BME280;5279;42.048;24.638;2023-07-28T08:41:19;97465.56;;;28.17;31.13
10464;BME280;5279;42.048;24.638;2023-07-28T08:43:46;97467.88;;;28.36;30.28
10464;BME280;5279;42.048;24.638;2023-07-28T08:46:13;97467.41;;;28.49;30.14
10464;BME280;5279;42.048;24.638;2023-07-28T08:48:40;97472.34;;;28.52;30.93
10464;BME280;5279;42.048;24.638;2023-07-28T08:51:07;97468.63;;;28.63;30.49
10464;BME280;5279;42.048;24.638;2023-07-28T08:53:34;97463.78;;;28.70;29.22
10464;BME280;5279;42.048;24.638;2023-07-28T08:56:02;97473.38;;;28.78;28.88
10464;BME280;5279;42.048;24.638;2023-07-28T08:58:30;97461.66;;;28.82;29.23
10464;BME280;5279;42.048;24.638;2023-07-28T09:00:57;97462.03;;;28.96;30.17
10464;BME280;5279;42.048;24.638;2023-07-28T09:03:26;97457.72;;;29.10;29.32
10464;BME280;5279;42.048;24.638;2023-07-28T09:05:59;97443.34;;;29.24;28.62
10464;BME280;5279;42.048;24.638;2023-07-28T09:08:27;97448.84;;;29.35;27.78
10464;BME280;5279;42.048;24.638;2023-07-28T09:10:53;97448.63;;;29.56;28.01
10464;BME280;5279;42.048;24.638;2023-07-28T09:13:22;97441.81;;;29.54;26.31
10464;BME280;5279;42.048;24.638;2023-07-28T09:15:49;97442.38;;;29.71;27.53
10464;BME280;5279;42.048;24.638;2023-07-28T09:18:17;97438.00;;;29.65;26.67
10464;BME280;5279;42.048;24.638;2023-07-28T09:20:44;97439.09;;;29.59;26.83
10464;BME280;5279;42.048;24.638;2023-07-28T09:23:13;97432.03;;;29.78;27.13
10464;BME280;5279;42.048;24.638;2023-07-28T09:25:41;97435.59;;;29.89;25.85
10464;BME280;5279;42.048;24.638;2023-07-28T09:28:08;97421.94;;;29.89;25.56
10464;BME280;5279;42.048;24.638;2023-07-28T09:30:47;97425.72;;;29.77;25.97
10464;BME280;5279;42.048;24.638;2023-07-28T09:33:28;97416.78;;;29.82;26.45
10464;BME280;5279;42.048;24.638;2023-07-28T09:35:55;97413.97;;;29.77;25.63
10464;BME280;5279;42.048;24.638;2023-07-28T09:38:23;97409.69;;;29.91;25.89
10464;BME280;5279;42.048;24.638;2023-07-28T09:40:51;97408.59;;;30.12;26.36
10464;BME280;5279;42.048;24.638;2023-07-28T09:43:18;97407.47;;;30.23;26.92
10464;BME280;5279;42.048;24.638;2023-07-28T09:45:46;97411.03;;;30.09;25.93
10464;BME280;5279;42.048;24.638;2023-07-28T09:48:14;97402.56;;;30.20;25.29
10464;BME280;5279;42.048;24.638;2023-07-28T09:50:43;97401.72;;;30.20;25.20
10464;BME280;5279;42.048;24.638;2023-07-28T09:53:10;97403.63;;;30.55;26.61
10464;BME280;5279;42.048;24.638;2023-07-28T09:55:39;97400.91;;;30.50;25.00
10464;BME280;5279;42.048;24.638;2023-07-28T09:58:09;97404.44;;;30.60;24.88
10464;BME280;5279;42.048;24.638;2023-07-28T10:00:37;97385.03;;;30.47;24.49
10464;BME280;5279;42.048;24.638;2023-07-28T10:03:06;97392.69;;;30.55;25.33
10464;BME280;5279;42.048;24.638;2023-07-28T10:05:34;97390.41;;;30.87;25.93
10464;BME280;5279;42.048;24.638;2023-07-28T10:08:02;97386.56;;;30.88;24.70
10464;BME280;5279;42.048;24.638;2023-07-28T10:10:30;97385.69;;;31.08;24.50
10464;BME280;5279;42.048;24.638;2023-07-28T10:12:58;97379.16;;;30.94;23.24
10464;BME280;5279;42.048;24.638;2023-07-28T10:15:28;97372.78;;;31.13;24.17
10464;BME280;5279;42.048;24.638;2023-07-28T10:17:56;97374.13;;;31.21;24.62
10464;BME280;5279;42.048;24.638;2023-07-28T10:20:30;97371.66;;;31.19;24.11
10464;BME280;5279;42.048;24.638;2023-07-28T10:23:07;97373.66;;;31.09;23.62
10464;BME280;5279;42.048;24.638;2023-07-28T10:25:35;97364.59;;;31.08;23.14
10464;BME280;5279;42.048;24.638;2023-07-28T10:28:03;97371.16;;;31.12;22.77
10464;BME280;5279;42.048;24.638;2023-07-28T10:30:35;97362.88;;;31.22;23.77
10464;BME280;5279;42.048;24.638;2023-07-28T10:33:03;97350.69;;;31.43;23.20
10464;BME280;5279;42.048;24.638;2023-07-28T10:35:32;97354.94;;;31.26;22.99
10464;BME280;5279;42.048;24.638;2023-07-28T10:38:32;97351.00;;;31.42;22.60
10464;BME280;5279;42.048;24.638;2023-07-28T10:41:11;97337.84;;;31.49;22.59
10464;BME280;5279;42.048;24.638;2023-07-28T10:43:39;97338.13;;;31.42;21.46
10464;BME280;5279;42.048;24.638;2023-07-28T10:46:08;97337.75;;;31.59;22.04
10464;BME280;5279;42.048;24.638;2023-07-28T10:48:36;97341.50;;;31.73;21.49
10464;BME280;5279;42.048;24.638;2023-07-28T10:51:06;97330.63;;;31.92;22.40
10464;BME280;5279;42.048;24.638;2023-07-28T10:53:33;97331.91;;;32.10;22.26
10464;BME280;5279;42.048;24.638;2023-07-28T10:56:02;97337.31;;;32.15;21.76
10464;BME280;5279;42.048;24.638;2023-07-28T10:58:30;97333.56;;;32.06;21.34
10464;BME280;5279;42.048;24.638;2023-07-28T11:00:57;97331.13;;;31.99;21.00
10464;BME280;5279;42.048;24.638;2023-07-28T11:03:24;97329.59;;;31.88;20.94
10464;BME280;5279;42.048;24.638;2023-07-28T11:05:51;97316.72;;;31.50;21.21
10464;BME280;5279;42.048;24.638;2023-07-28T11:08:23;97330.25;;;31.75;21.69
10464;BME280;5279;42.048;24.638;2023-07-28T11:10:50;97318.06;;;31.86;22.53
10464;BME280;5279;42.048;24.638;2023-07-28T11:13:17;97317.41;;;31.99;22.70
10464;BME280;5279;42.048;24.638;2023-07-28T11:15:44;97322.38;;;32.26;22.25
10464;BME280;5279;42.048;24.638;2023-07-28T11:18:11;97316.63;;;32.27;22.47
10464;BME280;5279;42.048;24.638;2023-07-28T11:20:41;97320.56;;;32.16;21.05
10464;BME280;5279;42.048;24.638;2023-07-28T11:23:08;97317.69;;;32.31;21.64
10464;BME280;5279;42.048;24.638;2023-07-28T11:25:49;97307.06;;;32.25;21.87
10464;BME280;5279;42.048;24.638;2023-07-28T11:28:16;97313.72;;;32.42;21.71
10464;BME280;5279;42.048;24.638;2023-07-28T11:30:46;97311.06;;;32.61;22.10
10464;BME280;5279;42.048;24.638;2023-07-28T11:33:13;97303.06;;;32.65;20.84
10464;BME280;5279;42.048;24.638;2023-07-28T11:35:43;97304.84;;;32.74;21.20
10464;BME280;5279;42.048;24.638;2023-07-28T11:38:12;97304.81;;;32.79;20.23
10464;BME280;5279;42.048;24.638;2023-07-28T11:40:41;97305.53;;;32.85;21.03
10464;BME280;5279;42.048;24.638;2023-07-28T11:43:09;97291.16;;;32.93;22.18
10464;BME280;5279;42.048;24.638;2023-07-28T11:45:36;97301.75;;;33.23;21.64
10464;BME280;5279;42.048;24.638;2023-07-28T11:48:05;97293.44;;;33.28;22.09
10464;BME280;5279;42.048;24.638;2023-07-28T11:50:35;97293.44;;;33.28;20.22
10464;BME280;5279;42.048;24.638;2023-07-28T11:53:02;97293.00;;;33.21;20.54
10464;BME280;5279;42.048;24.638;2023-07-28T11:55:29;97285.25;;;33.23;21.14
10464;BME280;5279;42.048;24.638;2023-07-28T11:57:55;97282.38;;;33.33;21.80
10464;BME280;5279;42.048;24.638;2023-07-28T12:00:30;97289.41;;;33.39;20.22
10464;BME280;5279;42.048;24.638;2023-07-28T12:03:04;97279.16;;;33.26;20.66
10464;BME280;5279;42.048;24.638;2023-07-28T12:05:31;97276.41;;;33.26;20.59
10464;BME280;5279;42.048;24.638;2023-07-28T12:07:59;97275.31;;;33.27;21.84
10464;BME280;5279;42.048;24.638;2023-07-28T12:10:26;97267.00;;;33.32;20.67
10464;BME280;5279;42.048;24.638;2023-07-28T12:12:53;97278.44;;;33.39;20.73
10464;BME280;5279;42.048;24.638;2023-07-28T12:15:24;97263.38;;;33.37;20.36
10464;BME280;5279;42.048;24.638;2023-07-28T12:18:07;97267.00;;;33.32;21.52
10464;BME280;5279;42.048;24.638;2023-07-28T12:20:36;97256.94;;;33.41;20.46
10464;BME280;5279;42.048;24.638;2023-07-28T12:23:03;97253.22;;;33.19;21.01
10464;BME280;5279;42.048;24.638;2023-07-28T12:25:30;97255.72;;;33.15;21.53
10464;BME280;5279;42.048;24.638;2023-07-28T12:27:58;97248.13;;;33.07;21.23
10464;BME280;5279;42.048;24.638;2023-07-28T12:30:24;97242.09;;;33.10;21.12
10464;BME280;5279;42.048;24.638;2023-07-28T12:32:51;97241.91;;;33.20;20.22
10464;BME280;5279;42.048;24.638;2023-07-28T12:35:20;97233.16;;;33.18;21.37
10464;BME280;5279;42.048;24.638;2023-07-28T12:37:49;97237.00;;;33.17;21.42
10464;BME280;5279;42.048;24.638;2023-07-28T12:40:16;97237.91;;;32.94;21.84
10464;BME280;5279;42.048;24.638;2023-07-28T12:42:44;97231.66;;;33.07;21.05
10464;BME280;5279;42.048;24.638;2023-07-28T12:45:11;97223.19;;;33.04;21.04
10464;BME280;5279;42.048;24.638;2023-07-28T12:47:38;97225.28;;;33.12;22.60
10464;BME280;5279;42.048;24.638;2023-07-28T12:50:06;97219.28;;;32.91;21.60
10464;BME280;5279;42.048;24.638;2023-07-28T12:52:34;97218.16;;;32.92;21.23
10464;BME280;5279;42.048;24.638;2023-07-28T12:55:01;97213.09;;;32.99;21.59
10464;BME280;5279;42.048;24.638;2023-07-28T12:57:29;97219.31;;;33.05;20.79
10464;BME280;5279;42.048;24.638;2023-07-28T12:59:55;97218.75;;;33.26;21.98
10464;BME280;5279;42.048;24.638;2023-07-28T13:02:22;97208.94;;;33.20;20.70
10464;BME280;5279;42.048;24.638;2023-07-28T13:04:49;97194.28;;;33.11;20.31